Time;durP1;ratioP1;P1;durP2;ratioP2;P2;SDS_P1;SDS_P2;PMS_P1;PMS_P2;Temp;Humidity;BMP_temperature;BMP_pressure;BME280_temperature;BME280_humidity;BME280_pressure;Samples;Min_cycle;Max_cycle;Signal;HPM_P1;HPM_P2
2022/10/24 00:02:08;;;;;;;16.77;4.15;;;;;;;;;;4965403;28;20497;-76
2022/10/24 00:04:39;;;;;;;16.83;4.90;;;;;;;;;;4966598;28;20488;-76
2022/10/24 00:07:06;;;;;;;13.32;3.97;;;;;;;;;;4965379;28;20027;-75
2022/10/24 00:09:32;;;;;;;16.65;4.72;;;;;;;;;;4965019;28;20114;-76
2022/10/24 00:11:58;;;;;;;14.00;4.15;;;;;;;;;;4956432;28;20027;-76
2022/10/24 00:14:25;;;;;;;11.32;4.20;;;;;;;;;;4963979;28;20112;-76
2022/10/24 00:16:51;;;;;;;10.27;4.00;;;;;;;;;;4956370;28;20035;-77
2022/10/24 00:19:17;;;;;;;11.30;3.72;;;;;;;;;;4965841;28;20035;-76
2022/10/24 00:21:43;;;;;;;11.77;4.78;;;;;;;;;;4959564;28;20046;-77
2022/10/24 00:24:09;;;;;;;11.15;4.07;;;;;;;;;;4963997;28;20065;-76
2022/10/24 00:26:35;;;;;;;14.95;4.43;;;;;;;;;;4971939;28;20564;-75
2022/10/24 00:29:01;;;;;;;12.13;3.85;;;;;;;;;;4960396;28;20024;-76
2022/10/24 00:31:27;;;;;;;19.02;4.40;;;;;;;;;;4962255;28;20511;-76
2022/10/24 00:33:55;;;;;;;16.60;4.38;;;;;;;;;;4966522;28;20039;-75
2022/10/24 00:36:22;;;;;;;17.40;3.88;;;;;;;;;;4970648;28;20489;-76
2022/10/24 00:38:49;;;;;;;13.65;4.18;;;;;;;;;;4963379;28;20089;-76
2022/10/24 00:41:16;;;;;;;8.10;4.50;;;;;;;;;;4964320;28;20547;-76
2022/10/24 00:43:42;;;;;;;10.57;4.78;;;;;;;;;;4965134;28;20045;-75
2022/10/24 00:46:08;;;;;;;13.60;3.95;;;;;;;;;;4959644;28;20306;-75
2022/10/24 00:48:37;;;;;;;20.88;5.13;;;;;;;;;;4963232;28;20766;-76
2022/10/24 00:51:10;;;;;;;11.50;4.00;;;;;;;;;;4963372;28;20027;-76
2022/10/24 00:53:40;;;;;;;12.48;5.25;;;;;;;;;;4963511;28;20035;-76
2022/10/24 00:56:07;;;;;;;13.50;3.70;;;;;;;;;;4960457;28;20164;-77
2022/10/24 00:58:33;;;;;;;13.77;4.22;;;;;;;;;;4968037;28;20025;-75
2022/10/24 01:01:00;;;;;;;12.00;4.30;;;;;;;;;;4957489;28;20039;-76
2022/10/24 01:03:26;;;;;;;15.88;4.53;;;;;;;;;;4959983;28;20110;-76
2022/10/24 01:06:10;;;;;;;15.95;4.93;;;;;;;;;;4963506;28;20031;-76
2022/10/24 01:08:45;;;;;;;15.27;4.22;;;;;;;;;;4965699;28;20055;-76
2022/10/24 01:11:11;;;;;;;12.18;3.83;;;;;;;;;;4961957;28;20409;-76
2022/10/24 01:13:48;;;;;;;18.13;4.50;;;;;;;;;;4958784;28;20027;-75
2022/10/24 01:16:32;;;;;;;17.13;4.93;;;;;;;;;;4958101;28;20031;-75
2022/10/24 01:19:04;;;;;;;14.68;4.18;;;;;;;;;;4960268;28;20035;-75
2022/10/24 01:21:34;;;;;;;16.25;4.95;;;;;;;;;;4967134;28;20034;-76
2022/10/24 01:24:00;;;;;;;12.38;5.03;;;;;;;;;;4970261;28;20366;-76
2022/10/24 01:26:44;;;;;;;11.88;4.03;;;;;;;;;;4965794;28;20112;-75
2022/10/24 01:29:18;;;;;;;15.73;4.05;;;;;;;;;;4965765;28;20027;-76
2022/10/24 01:31:51;;;;;;;11.90;4.03;;;;;;;;;;4957731;28;20042;-75
2022/10/24 01:34:23;;;;;;;11.32;4.10;;;;;;;;;;4970028;28;20038;-75
2022/10/24 01:37:12;;;;;;;18.10;4.53;;;;;;;;;;4965320;28;20053;-76
2022/10/24 01:39:43;;;;;;;11.85;4.53;;;;;;;;;;4969705;28;20106;-76
2022/10/24 01:42:10;;;;;;;14.07;4.35;;;;;;;;;;4960188;28;20110;-75
2022/10/24 01:44:39;;;;;;;13.40;4.88;;;;;;;;;;4959235;28;20382;-76
2022/10/24 01:47:08;;;;;;;14.35;5.57;;;;;;;;;;4964757;28;20032;-75
2022/10/24 01:49:36;;;;;;;15.63;5.22;;;;;;;;;;4968735;28;20035;-77
2022/10/24 01:52:03;;;;;;;12.77;4.20;;;;;;;;;;4966609;28;20378;-76
2022/10/24 01:54:30;;;;;;;12.18;4.53;;;;;;;;;;4968239;28;20027;-75
2022/10/24 01:56:57;;;;;;;14.27;4.10;;;;;;;;;;4966258;28;20493;-76
2022/10/24 01:59:28;;;;;;;10.75;4.18;;;;;;;;;;4973202;28;20495;-76
2022/10/24 02:01:59;;;;;;;11.20;3.97;;;;;;;;;;4970750;28;20026;-75
2022/10/24 02:04:27;;;;;;;17.27;4.47;;;;;;;;;;4966388;28;20031;-75
2022/10/24 02:06:55;;;;;;;10.43;3.83;;;;;;;;;;4961540;28;20023;-76
2022/10/24 02:09:23;;;;;;;15.85;4.22;;;;;;;;;;4954843;28;20201;-75
2022/10/24 02:11:50;;;;;;;8.93;3.60;;;;;;;;;;4966560;28;20090;-76
2022/10/24 02:14:16;;;;;;;12.20;4.32;;;;;;;;;;4969129;28;20038;-76
2022/10/24 02:16:43;;;;;;;16.92;5.18;;;;;;;;;;4961792;28;20019;-76
2022/10/24 02:19:09;;;;;;;12.93;3.72;;;;;;;;;;4964183;28;20062;-76
2022/10/24 02:21:47;;;;;;;10.68;3.63;;;;;;;;;;4964730;28;20039;-75
2022/10/24 02:24:31;;;;;;;15.52;3.55;;;;;;;;;;4969029;28;20027;-75
2022/10/24 02:27:05;;;;;;;8.95;4.18;;;;;;;;;;4962299;28;20031;-75
2022/10/24 02:29:40;;;;;;;14.98;3.53;;;;;;;;;;4964922;28;20031;-75
2022/10/24 02:32:06;;;;;;;;;;;;;;;;;;4963623;28;20030;-76
2022/10/24 02:34:34;;;;;;;12.93;4.20;;;;;;;;;;4971331;28;19910;-76
2022/10/24 02:37:01;;;;;;;12.23;3.90;;;;;;;;;;4963684;28;20118;-76
2022/10/24 02:39:27;;;;;;;9.63;3.60;;;;;;;;;;4968545;28;20035;-75
2022/10/24 02:41:55;;;;;;;11.00;3.92;;;;;;;;;;4967198;28;20595;-75
2022/10/24 02:44:22;;;;;;;12.10;3.83;;;;;;;;;;4960436;28;20424;-75
2022/10/24 02:46:50;;;;;;;11.52;3.67;;;;;;;;;;4964309;28;20508;-76
2022/10/24 02:49:16;;;;;;;11.95;3.60;;;;;;;;;;4960460;28;20349;-76
2022/10/24 02:51:44;;;;;;;17.75;4.43;;;;;;;;;;4966333;28;20027;-76
2022/10/24 02:54:10;;;;;;;13.10;4.25;;;;;;;;;;4962722;28;20039;-76
2022/10/24 02:56:38;;;;;;;9.65;3.88;;;;;;;;;;4964709;28;20510;-76
2022/10/24 02:59:05;;;;;;;13.25;4.22;;;;;;;;;;4962438;28;20078;-76
2022/10/24 03:01:31;;;;;;;9.52;4.15;;;;;;;;;;4967168;28;20058;-76
2022/10/24 03:03:57;;;;;;;11.77;3.80;;;;;;;;;;4960960;28;20038;-77
2022/10/24 03:06:23;;;;;;;13.68;4.30;;;;;;;;;;4963545;28;20046;-77
2022/10/24 03:08:49;;;;;;;11.90;4.50;;;;;;;;;;4964439;28;20030;-77
2022/10/24 03:11:15;;;;;;;11.75;4.22;;;;;;;;;;4962560;28;20118;-76
2022/10/24 03:13:41;;;;;;;15.93;4.43;;;;;;;;;;4963930;28;20035;-77
2022/10/24 03:16:07;;;;;;;11.32;4.38;;;;;;;;;;4964201;28;20063;-76
2022/10/24 03:18:33;;;;;;;11.77;4.97;;;;;;;;;;4967260;28;20031;-76
2022/10/24 03:20:59;;;;;;;15.95;4.32;;;;;;;;;;4962516;28;20102;-75
2022/10/24 03:23:27;;;;;;;12.63;4.57;;;;;;;;;;4961330;28;20386;-75
2022/10/24 03:25:54;;;;;;;12.65;4.60;;;;;;;;;;4968655;28;20019;-75
2022/10/24 03:28:20;;;;;;;13.32;4.38;;;;;;;;;;4976903;28;20584;-75
2022/10/24 03:30:46;;;;;;;19.58;5.00;;;;;;;;;;4963163;28;20046;-75
2022/10/24 03:33:12;;;;;;;16.77;4.78;;;;;;;;;;4965186;28;20086;-76
2022/10/24 03:35:39;;;;;;;10.85;3.95;;;;;;;;;;4960183;28;20046;-76
2022/10/24 03:38:07;;;;;;;32.67;5.03;;;;;;;;;;4968801;28;20022;-75
2022/10/24 03:40:33;;;;;;;15.18;4.88;;;;;;;;;;4960649;28;20428;-75
2022/10/24 03:42:59;;;;;;;14.32;5.70;;;;;;;;;;4959141;28;20031;-75
2022/10/24 03:45:25;;;;;;;15.63;4.72;;;;;;;;;;4961531;28;20059;-76
2022/10/24 03:47:51;;;;;;;7.40;3.45;;;;;;;;;;4962982;28;20500;-75
2022/10/24 03:50:17;;;;;;;13.93;4.05;;;;;;;;;;4961464;28;20031;-76
2022/10/24 03:52:43;;;;;;;13.20;4.63;;;;;;;;;;4965718;28;20042;-75
2022/10/24 03:55:10;;;;;;;8.95;3.67;;;;;;;;;;4970258;28;20102;-75
2022/10/24 03:57:36;;;;;;;14.50;4.55;;;;;;;;;;4961816;28;20038;-75
2022/10/24 04:00:02;;;;;;;10.15;4.75;;;;;;;;;;4960841;28;20031;-75
2022/10/24 04:02:28;;;;;;;20.40;4.65;;;;;;;;;;4953919;28;20431;-77
2022/10/24 04:04:54;;;;;;;13.73;5.40;;;;;;;;;;4967106;28;20125;-74
2022/10/24 04:07:20;;;;;;;12.60;4.30;;;;;;;;;;4964277;28;20027;-77
2022/10/24 04:09:46;;;;;;;19.60;5.03;;;;;;;;;;4960249;28;20061;-75
2022/10/24 04:12:12;;;;;;;11.60;5.45;;;;;;;;;;4957474;28;20034;-77
2022/10/24 04:14:38;;;;;;;10.50;4.47;;;;;;;;;;4961781;28;20023;-75
2022/10/24 04:17:05;;;;;;;17.40;4.38;;;;;;;;;;4962049;28;20035;-75
2022/10/24 04:19:31;;;;;;;14.75;4.32;;;;;;;;;;4964893;28;20059;-76
2022/10/24 04:21:57;;;;;;;16.40;4.43;;;;;;;;;;4964796;28;20038;-75
2022/10/24 04:24:23;;;;;;;10.82;4.20;;;;;;;;;;4959024;28;20027;-76
2022/10/24 04:26:49;;;;;;;14.05;4.35;;;;;;;;;;4964386;28;20370;-75
2022/10/24 04:29:15;;;;;;;12.50;4.15;;;;;;;;;;4961447;28;20053;-76
2022/10/24 04:31:41;;;;;;;14.85;4.20;;;;;;;;;;4970056;28;20111;-76
2022/10/24 04:34:07;;;;;;;13.07;4.00;;;;;;;;;;4959537;28;20038;-75
2022/10/24 04:36:34;;;;;;;12.00;4.20;;;;;;;;;;4953610;28;20022;-75
2022/10/24 04:39:00;;;;;;;18.65;4.85;;;;;;;;;;4964091;28;20385;-76
2022/10/24 04:41:26;;;;;;;13.55;4.38;;;;;;;;;;4964533;28;20050;-75
2022/10/24 04:43:52;;;;;;;21.85;4.40;;;;;;;;;;4965539;28;20121;-76
2022/10/24 04:46:18;;;;;;;10.38;3.72;;;;;;;;;;4959422;28;20341;-77
2022/10/24 04:48:45;;;;;;;18.85;4.28;;;;;;;;;;4964063;28;20686;-77
2022/10/24 04:51:11;;;;;;;11.70;4.55;;;;;;;;;;4962013;28;20054;-76
2022/10/24 04:53:37;;;;;;;11.80;4.82;;;;;;;;;;4960636;28;20035;-75
2022/10/24 04:56:03;;;;;;;10.13;4.55;;;;;;;;;;4962146;28;20176;-76
2022/10/24 04:58:29;;;;;;;9.50;3.97;;;;;;;;;;4964645;28;20412;-77
2022/10/24 05:00:55;;;;;;;8.40;3.90;;;;;;;;;;4966197;28;20432;-78
2022/10/24 05:03:22;;;;;;;11.65;4.05;;;;;;;;;;4971388;28;20058;-77
2022/10/24 05:05:48;;;;;;;12.43;5.07;;;;;;;;;;4969553;28;20038;-78
2022/10/24 05:08:14;;;;;;;13.85;4.78;;;;;;;;;;4965034;28;20034;-76
2022/10/24 05:10:40;;;;;;;11.60;3.80;;;;;;;;;;4965107;28;20066;-77
2022/10/24 05:13:06;;;;;;;16.15;4.80;;;;;;;;;;4974229;28;20030;-76
2022/10/24 05:15:33;;;;;;;12.52;4.45;;;;;;;;;;4961270;28;20066;-76
2022/10/24 05:17:59;;;;;;;10.77;4.10;;;;;;;;;;4970011;28;20030;-76
2022/10/24 05:20:25;;;;;;;18.55;4.95;;;;;;;;;;4961233;28;20536;-76
2022/10/24 05:22:51;;;;;;;10.30;3.70;;;;;;;;;;4965884;28;20063;-73
2022/10/24 05:25:18;;;;;;;12.93;3.90;;;;;;;;;;4956902;28;20488;-76
2022/10/24 05:27:44;;;;;;;17.30;4.30;;;;;;;;;;4966038;28;20038;-76
2022/10/24 05:30:10;;;;;;;13.20;4.63;;;;;;;;;;4963683;28;20031;-76
2022/10/24 05:32:36;;;;;;;9.20;3.67;;;;;;;;;;4962868;28;20043;-76
2022/10/24 05:35:03;;;;;;;15.05;4.78;;;;;;;;;;4965099;28;20132;-76
2022/10/24 05:37:29;;;;;;;14.85;4.43;;;;;;;;;;4961728;28;20027;-76
2022/10/24 05:39:55;;;;;;;12.77;3.88;;;;;;;;;;4967023;28;20022;-76
2022/10/24 05:42:21;;;;;;;17.30;4.50;;;;;;;;;;4963476;28;20041;-76
2022/10/24 05:44:47;;;;;;;9.75;3.97;;;;;;;;;;4965231;28;20047;-76
2022/10/24 05:47:13;;;;;;;14.93;5.00;;;;;;;;;;4964727;28;20031;-76
2022/10/24 05:49:39;;;;;;;13.77;4.25;;;;;;;;;;4960994;28;20089;-76
2022/10/24 05:52:05;;;;;;;11.10;3.80;;;;;;;;;;4966595;28;20019;-77
2022/10/24 05:54:31;;;;;;;19.27;4.97;;;;;;;;;;4963865;28;20026;-76
2022/10/24 05:56:57;;;;;;;15.35;4.85;;;;;;;;;;4964684;28;20494;-76
2022/10/24 05:59:23;;;;;;;16.20;3.83;;;;;;;;;;4964563;28;20495;-76
2022/10/24 06:01:50;;;;;;;15.98;4.15;;;;;;;;;;4964958;28;20101;-76
2022/10/24 06:04:16;;;;;;;12.45;3.15;;;;;;;;;;4966121;28;20205;-76
2022/10/24 06:06:42;;;;;;;10.20;3.40;;;;;;;;;;4960011;28;20517;-76
2022/10/24 06:09:09;;;;;;;12.02;4.55;;;;;;;;;;4971138;28;20113;-76
2022/10/24 06:11:35;;;;;;;9.30;4.32;;;;;;;;;;4940335;28;20109;-75
2022/10/24 06:14:01;;;;;;;10.20;3.70;;;;;;;;;;4950060;28;20497;-77
2022/10/24 06:16:29;;;;;;;18.00;4.38;;;;;;;;;;4947099;28;20023;-75
2022/10/24 06:18:56;;;;;;;10.65;3.53;;;;;;;;;;4951214;28;20055;-76
2022/10/24 06:21:22;;;;;;;12.77;4.13;;;;;;;;;;4948079;28;20040;-75
2022/10/24 06:23:48;;;;;;;11.27;3.55;;;;;;;;;;4950999;28;20422;-76
2022/10/24 06:26:14;;;;;;;14.93;4.93;;;;;;;;;;4950900;28;20111;-76
2022/10/24 06:28:41;;;;;;;9.73;3.60;;;;;;;;;;4952085;28;20054;-76
2022/10/24 06:31:08;;;;;;;11.40;3.78;;;;;;;;;;4944499;28;20114;-76
2022/10/24 06:33:34;;;;;;;16.83;4.88;;;;;;;;;;4947927;28;20042;-76
2022/10/24 06:36:03;;;;;;;9.60;4.22;;;;;;;;;;4947619;28;20843;-76
2022/10/24 06:38:29;;;;;;;11.13;3.90;;;;;;;;;;4948584;28;20023;-76
2022/10/24 06:40:55;;;;;;;8.73;3.42;;;;;;;;;;4945006;28;20631;-76
2022/10/24 06:43:21;;;;;;;12.52;4.38;;;;;;;;;;4949470;28;20033;-77
2022/10/24 06:45:47;;;;;;;10.10;3.55;;;;;;;;;;4950617;28;20498;-76
2022/10/24 06:48:14;;;;;;;12.65;3.97;;;;;;;;;;4944105;28;20023;-76
2022/10/24 06:50:40;;;;;;;17.70;3.88;;;;;;;;;;4942757;28;20028;-75
2022/10/24 06:53:06;;;;;;;13.50;3.80;;;;;;;;;;4944644;28;20027;-77
2022/10/24 06:55:33;;;;;;;11.75;3.88;;;;;;;;;;4943097;28;20030;-76
2022/10/24 06:57:59;;;;;;;7.28;3.53;;;;;;;;;;4944480;28;20033;-77
2022/10/24 07:00:25;;;;;;;10.48;3.78;;;;;;;;;;4942952;28;20024;-76
2022/10/24 07:02:51;;;;;;;10.35;4.78;;;;;;;;;;4948156;28;20486;-75
2022/10/24 07:05:17;;;;;;;13.70;4.43;;;;;;;;;;4949184;28;20066;-76
2022/10/24 07:07:44;;;;;;;12.48;3.40;;;;;;;;;;4945929;28;20138;-77
2022/10/24 07:10:12;;;;;;;12.38;4.60;;;;;;;;;;4954051;28;20046;-76
2022/10/24 07:12:38;;;;;;;13.13;3.50;;;;;;;;;;4967484;28;21652;-76
2022/10/24 07:15:04;;;;;;;10.98;3.65;;;;;;;;;;4960780;28;20544;-76
2022/10/24 07:17:31;;;;;;;6.65;3.75;;;;;;;;;;4968623;28;20026;-76
2022/10/24 07:19:57;;;;;;;11.93;3.65;;;;;;;;;;4966368;28;20039;-76
2022/10/24 07:22:23;;;;;;;10.85;4.47;;;;;;;;;;4963400;28;20457;-76
2022/10/24 07:24:53;;;;;;;15.63;4.70;;;;;;;;;;4966291;28;20034;-76
2022/10/24 07:27:19;;;;;;;6.43;3.30;;;;;;;;;;4968997;28;20050;-76
2022/10/24 07:29:45;;;;;;;5.50;3.15;;;;;;;;;;4970285;28;20026;-75
2022/10/24 07:32:11;;;;;;;7.63;3.45;;;;;;;;;;4967575;28;20036;-77
2022/10/24 07:34:39;;;;;;;12.65;3.70;;;;;;;;;;4967215;28;20505;-75
2022/10/24 07:37:05;;;;;;;9.43;3.50;;;;;;;;;;4965740;28;20043;-75
2022/10/24 07:39:31;;;;;;;10.73;3.20;;;;;;;;;;4964746;28;20541;-75
2022/10/24 07:41:57;;;;;;;5.95;2.85;;;;;;;;;;4964164;28;20081;-76
2022/10/24 07:44:23;;;;;;;6.57;3.30;;;;;;;;;;4964663;28;20117;-77
2022/10/24 07:46:49;;;;;;;9.80;3.30;;;;;;;;;;4964489;28;20026;-76
2022/10/24 07:49:15;;;;;;;14.40;3.90;;;;;;;;;;4966368;28;20101;-77
2022/10/24 07:51:42;;;;;;;9.80;3.75;;;;;;;;;;4962361;28;20042;-77
2022/10/24 07:54:08;;;;;;;10.68;3.55;;;;;;;;;;4964955;28;20030;-77
2022/10/24 07:56:35;;;;;;;7.75;3.83;;;;;;;;;;4963390;28;20062;-77
2022/10/24 07:59:01;;;;;;;8.70;3.80;;;;;;;;;;4967030;28;20027;-76
2022/10/24 08:01:28;;;;;;;7.85;3.90;;;;;;;;;;4968161;28;20030;-76
2022/10/24 08:03:54;;;;;;;6.65;3.40;;;;;;;;;;4963614;28;20030;-77
2022/10/24 08:06:22;;;;;;;8.00;3.63;;;;;;;;;;4959453;28;20042;-76
2022/10/24 08:08:48;;;;;;;7.25;3.13;;;;;;;;;;4957749;28;20251;-76
2022/10/24 08:11:16;;;;;;;8.43;3.58;;;;;;;;;;4959319;28;20054;-76
2022/10/24 08:13:42;;;;;;;8.93;3.80;;;;;;;;;;4959870;28;20528;-76
2022/10/24 08:16:09;;;;;;;11.82;3.97;;;;;;;;;;4957370;28;20034;-76
2022/10/24 08:18:35;;;;;;;8.50;3.40;;;;;;;;;;4956998;28;20035;-76
2022/10/24 08:21:02;;;;;;;7.88;4.00;;;;;;;;;;4957599;28;20034;-77
2022/10/24 08:23:28;;;;;;;6.50;3.55;;;;;;;;;;4961061;28;20037;-75
2022/10/24 08:25:55;;;;;;;8.68;3.15;;;;;;;;;;4963647;28;20031;-77
2022/10/24 08:28:22;;;;;;;6.25;4.07;;;;;;;;;;4959000;28;20504;-76
2022/10/24 08:30:57;;;;;;;8.68;3.40;;;;;;;;;;4959221;28;20073;-76
2022/10/24 08:33:26;;;;;;;6.80;3.13;;;;;;;;;;4969015;28;20117;-77
2022/10/24 08:35:56;;;;;;;5.45;3.80;;;;;;;;;;4959308;28;20329;-76
2022/10/24 08:38:25;;;;;;;8.00;3.17;;;;;;;;;;4973680;28;20027;-76
2022/10/24 08:40:51;;;;;;;5.28;2.80;;;;;;;;;;4962596;28;20035;-77
2022/10/24 08:43:18;;;;;;;7.95;2.95;;;;;;;;;;4961269;28;20407;-79
2022/10/24 08:45:48;;;;;;;8.68;3.30;;;;;;;;;;4959483;28;20033;-77
2022/10/24 08:48:14;;;;;;;3.85;2.55;;;;;;;;;;4962754;28;20113;-77
2022/10/24 08:50:44;;;;;;;5.53;2.72;;;;;;;;;;4958939;28;20045;-77
2022/10/24 08:53:12;;;;;;;6.47;2.97;;;;;;;;;;4957917;28;20110;-76
2022/10/24 08:58:23;;;;;;;4.57;2.75;;;;;;;;;;1459311;26;20145;-78
2022/10/24 09:00:50;;;;;;;6.95;2.80;;;;;;;;;;4973751;28;20590;-77
2022/10/24 09:03:20;;;;;;;7.10;3.35;;;;;;;;;;4969479;28;20035;-78
2022/10/24 09:05:52;;;;;;;4.60;2.90;;;;;;;;;;4986706;28;20039;-77
2022/10/24 09:08:28;;;;;;;5.45;3.00;;;;;;;;;;4976167;28;20078;-77
2022/10/24 09:10:54;;;;;;;;;;;;;;;;;;4981638;28;20030;-78
2022/10/24 09:13:22;;;;;;;3.50;2.60;;;;;;;;;;4975425;28;19914;-78
2022/10/24 09:15:49;;;;;;;3.67;2.65;;;;;;;;;;4976075;28;20467;-77
2022/10/24 09:18:24;;;;;;;3.85;2.42;;;;;;;;;;4990403;28;20031;-78
2022/10/24 09:20:51;;;;;;;5.53;2.90;;;;;;;;;;4983841;28;20027;-78
2022/10/24 09:23:19;;;;;;;2.75;2.35;;;;;;;;;;4979439;28;20403;-77
2022/10/24 09:25:48;;;;;;;6.32;2.90;;;;;;;;;;4987376;28;20042;-76
2022/10/24 09:28:16;;;;;;;4.28;2.60;;;;;;;;;;4971835;28;20030;-76
2022/10/24 09:30:43;;;;;;;3.72;2.30;;;;;;;;;;4976686;28;20038;-76
2022/10/24 09:33:12;;;;;;;6.93;2.70;;;;;;;;;;4987665;28;20039;-76
2022/10/24 09:35:39;;;;;;;4.75;2.92;;;;;;;;;;4966683;28;20035;-77
2022/10/24 09:38:25;;;;;;;3.58;2.17;;;;;;;;;;4961581;28;20031;-76
2022/10/24 09:40:52;;;;;;;5.13;2.60;;;;;;;;;;4965210;28;20034;-78
2022/10/24 09:43:20;;;;;;;3.92;2.30;;;;;;;;;;4967950;28;20027;-76
2022/10/24 09:45:50;;;;;;;5.13;2.42;;;;;;;;;;4983346;28;20066;-76
2022/10/24 09:48:26;;;;;;;3.08;2.10;;;;;;;;;;4976838;28;20493;-76
2022/10/24 09:50:53;;;;;;;2.80;2.30;;;;;;;;;;4977533;28;20062;-76
2022/10/24 09:53:22;;;;;;;5.13;2.83;;;;;;;;;;4956835;28;20046;-76
2022/10/24 09:55:50;;;;;;;5.20;2.85;;;;;;;;;;4959228;28;20019;-76
2022/10/24 09:58:22;;;;;;;5.30;2.70;;;;;;;;;;4966952;28;20043;-79
2022/10/24 10:01:07;;;;;;;4.95;2.47;;;;;;;;;;4960730;28;20026;-77
2022/10/24 10:03:34;;;;;;;3.88;2.20;;;;;;;;;;4966716;28;20035;-78
2022/10/24 10:06:03;;;;;;;4.88;2.55;;;;;;;;;;4958428;28;20033;-76
2022/10/24 10:08:30;;;;;;;5.13;2.60;;;;;;;;;;4963589;28;20030;-77
2022/10/24 10:11:05;;;;;;;5.82;3.67;;;;;;;;;;4963890;28;20035;-77
2022/10/24 10:13:37;;;;;;;8.32;4.20;;;;;;;;;;4980114;28;20034;-77
2022/10/24 10:16:04;;;;;;;5.70;3.70;;;;;;;;;;4966878;28;20034;-77
2022/10/24 10:18:31;;;;;;;5.70;2.38;;;;;;;;;;4977594;28;20038;-77
2022/10/24 10:21:03;;;;;;;6.32;2.45;;;;;;;;;;4964891;28;20026;-77
2022/10/24 10:23:31;;;;;;;5.10;2.40;;;;;;;;;;4966709;28;20043;-77
2022/10/24 10:26:18;;;;;;;3.33;2.72;;;;;;;;;;4962033;28;20042;-77
2022/10/24 10:29:04;;;;;;;2.88;2.40;;;;;;;;;;4978656;28;20031;-78
2022/10/24 10:31:42;;;;;;;5.78;2.30;;;;;;;;;;4968017;28;20034;-77
2022/10/24 10:34:21;;;;;;;2.75;2.22;;;;;;;;;;4964817;28;20142;-77
2022/10/24 10:37:06;;;;;;;3.45;2.20;;;;;;;;;;4963153;28;20022;-77
2022/10/24 10:39:39;;;;;;;5.20;2.80;;;;;;;;;;4961875;28;20063;-76
2022/10/24 10:42:14;;;;;;;4.72;2.60;;;;;;;;;;4981227;28;20274;-77
2022/10/24 10:44:40;;;;;;;;;;;;;;;;;;4964757;28;20512;-76
2022/10/24 10:47:12;;;;;;;3.08;2.03;;;;;;;;;;4983589;28;20233;-77
2022/10/24 10:49:39;;;;;;;3.42;2.33;;;;;;;;;;4962798;28;20121;-83
2022/10/24 10:52:09;;;;;;;3.47;2.60;;;;;;;;;;4981409;28;20101;-77
2022/10/24 10:54:38;;;;;;;3.58;2.38;;;;;;;;;;4964639;28;20488;-79
2022/10/24 10:57:16;;;;;;;3.80;2.55;;;;;;;;;;4980467;28;20582;-77
2022/10/24 11:00:00;;;;;;;3.33;2.28;;;;;;;;;;4965921;28;20058;-77
2022/10/24 11:02:44;;;;;;;3.42;2.13;;;;;;;;;;4963747;28;20065;-77
2022/10/24 11:05:31;;;;;;;4.20;2.13;;;;;;;;;;4962772;28;20026;-78
2022/10/24 11:08:16;;;;;;;4.30;2.70;;;;;;;;;;4981388;28;20027;-75
2022/10/24 11:10:49;;;;;;;4.25;2.00;;;;;;;;;;4964300;28;20479;-77
2022/10/24 11:13:19;;;;;;;2.20;1.88;;;;;;;;;;4973830;28;20038;-77
2022/10/24 11:15:52;;;;;;;3.08;2.10;;;;;;;;;;4967000;28;20146;-77
2022/10/24 11:18:30;;;;;;;2.55;1.90;;;;;;;;;;4978814;28;20027;-78
2022/10/24 11:21:05;;;;;;;2.60;1.95;;;;;;;;;;4971458;28;20035;-78
2022/10/24 11:23:35;;;;;;;3.20;1.77;;;;;;;;;;4975898;28;20034;-82
2022/10/24 11:26:07;;;;;;;3.25;1.88;;;;;;;;;;4973510;28;20053;-78
2022/10/24 11:28:40;;;;;;;2.10;1.90;;;;;;;;;;4984525;28;20031;-77
2022/10/24 11:31:11;;;;;;;2.65;1.90;;;;;;;;;;4983900;28;20122;-79
2022/10/24 11:33:46;;;;;;;3.15;2.08;;;;;;;;;;4977293;28;20317;-77
2022/10/24 11:36:12;;;;;;;;;;;;;;;;;;4988296;28;20743;-77
2022/10/24 11:38:52;;;;;;;3.72;1.83;;;;;;;;;;4986092;28;19921;-77
2022/10/24 11:41:29;;;;;;;6.63;1.60;;;;;;;;;;4968636;28;20026;-81
2022/10/24 11:43:58;;;;;;;2.80;1.80;;;;;;;;;;4980608;28;20479;-82
2022/10/24 11:46:28;;;;;;;2.40;1.80;;;;;;;;;;4987562;28;20394;-76
2022/10/24 11:48:55;;;;;;;1.67;1.58;;;;;;;;;;4963588;28;20027;-78
2022/10/24 11:51:32;;;;;;;1.83;1.50;;;;;;;;;;4966616;28;20031;-79
2022/10/24 11:54:00;;;;;;;2.78;1.60;;;;;;;;;;4965088;28;20385;-77
2022/10/24 11:56:40;;;;;;;5.07;1.73;;;;;;;;;;4965060;28;20035;-77
2022/10/24 11:59:07;;;;;;;3.83;2.65;;;;;;;;;;4964086;28;20393;-78
2022/10/24 12:01:49;;;;;;;2.45;1.52;;;;;;;;;;4964447;28;20026;-77
2022/10/24 12:04:18;;;;;;;2.55;1.40;;;;;;;;;;4966511;28;20038;-77
2022/10/24 12:06:47;;;;;;;1.50;1.40;;;;;;;;;;4968251;28;20042;-77
2022/10/24 12:09:32;;;;;;;1.60;1.42;;;;;;;;;;4974455;28;20037;-76
2022/10/24 12:12:17;;;;;;;2.92;1.48;;;;;;;;;;4991212;28;20028;-77
2022/10/24 12:15:02;;;;;;;2.30;1.63;;;;;;;;;;4975522;28;20262;-77
2022/10/24 12:17:47;;;;;;;2.38;1.80;;;;;;;;;;4984630;28;20023;-77
2022/10/24 12:20:19;;;;;;;4.45;2.03;;;;;;;;;;4968914;28;20023;-77
2022/10/24 12:22:56;;;;;;;3.58;1.95;;;;;;;;;;4990418;28;20015;-77
2022/10/24 12:25:35;;;;;;;2.95;1.90;;;;;;;;;;4973762;28;20030;-76
2022/10/24 12:28:08;;;;;;;2.05;1.70;;;;;;;;;;4988477;28;20031;-77
2022/10/24 12:30:35;;;;;;;1.80;1.70;;;;;;;;;;4986822;28;20034;-77
2022/10/24 12:33:11;;;;;;;1.58;1.48;;;;;;;;;;4968477;28;20027;-77
2022/10/24 12:35:37;;;;;;;;;;;;;;;;;;4984269;28;20051;-77
2022/10/24 12:38:14;;;;;;;1.60;1.50;;;;;;;;;;4973969;28;19929;-77
2022/10/24 12:41:05;;;;;;;2.30;2.10;;;;;;;;;;4983851;28;20517;-78
2022/10/24 12:43:33;;;;;;;1.60;1.50;;;;;;;;;;4970300;28;20027;-77
2022/10/24 12:46:03;;;;;;;3.72;1.58;;;;;;;;;;4984684;28;20027;-77
2022/10/24 12:48:31;;;;;;;2.47;1.63;;;;;;;;;;4970049;28;20488;-77
2022/10/24 12:50:59;;;;;;;1.70;1.60;;;;;;;;;;4972072;28;20046;-77
2022/10/24 12:53:31;;;;;;;2.85;2.03;;;;;;;;;;4983924;28;20082;-77
2022/10/24 12:56:05;;;;;;;3.13;1.67;;;;;;;;;;4970360;28;20027;-76
2022/10/24 12:58:36;;;;;;;2.72;1.65;;;;;;;;;;4986533;28;20599;-77
2022/10/24 13:01:05;;;;;;;2.55;1.88;;;;;;;;;;4969899;28;20019;-77
2022/10/24 13:03:51;;;;;;;1.73;1.60;;;;;;;;;;4971511;28;20551;-77
2022/10/24 13:06:41;;;;;;;8.35;1.70;;;;;;;;;;4972000;28;20431;-77
2022/10/24 13:09:13;;;;;;;1.90;1.45;;;;;;;;;;4964848;28;20042;-76
2022/10/24 13:11:43;;;;;;;2.20;1.60;;;;;;;;;;4971173;28;20098;-77
2022/10/24 13:14:12;;;;;;;2.38;1.60;;;;;;;;;;4968004;28;20469;-77
2022/10/24 13:17:03;;;;;;;2.92;2.13;;;;;;;;;;4988220;28;20059;-77
2022/10/24 13:19:31;;;;;;;2.67;1.85;;;;;;;;;;4988662;28;20102;-77
2022/10/24 13:21:59;;;;;;;2.55;1.90;;;;;;;;;;4991037;28;20073;-76
2022/10/24 13:24:25;;;;;;;2.75;1.50;;;;;;;;;;4976072;28;20026;-77
2022/10/24 13:27:14;;;;;;;3.75;2.00;;;;;;;;;;4989894;28;20031;-76
2022/10/24 13:29:42;;;;;;;3.25;1.90;;;;;;;;;;4972032;28;20046;-76
2022/10/24 13:32:12;;;;;;;3.33;2.30;;;;;;;;;;4987541;28;20039;-77
2022/10/24 13:34:51;;;;;;;6.68;3.25;;;;;;;;;;4971120;28;20047;-77
2022/10/24 13:37:23;;;;;;;6.88;3.75;;;;;;;;;;4984960;28;20110;-77
2022/10/24 13:39:56;;;;;;;3.30;2.70;;;;;;;;;;4975540;28;20023;-77
2022/10/24 13:42:23;;;;;;;9.73;4.55;;;;;;;;;;4967189;28;20444;-77
2022/10/24 13:44:51;;;;;;;4.80;2.85;;;;;;;;;;4969847;28;20023;-76
2022/10/24 13:47:25;;;;;;;3.80;3.30;;;;;;;;;;4990909;28;20031;-77
2022/10/24 13:49:52;;;;;;;5.00;3.85;;;;;;;;;;4989297;28;20026;-77
2022/10/24 13:52:24;;;;;;;3.58;3.03;;;;;;;;;;4984166;28;20819;-77
2022/10/24 13:54:54;;;;;;;3.28;2.85;;;;;;;;;;4966998;28;20023;-76
2022/10/24 13:57:37;;;;;;;4.10;3.33;;;;;;;;;;4986642;28;20023;-76
2022/10/24 14:00:08;;;;;;;4.15;3.05;;;;;;;;;;4989455;28;20069;-77
2022/10/24 14:02:39;;;;;;;4.15;2.80;;;;;;;;;;4972284;28;20481;-77
2022/10/24 14:05:18;;;;;;;2.80;2.20;;;;;;;;;;4977798;28;20030;-76
2022/10/24 14:07:44;;;;;;;2.20;2.00;;;;;;;;;;4985460;28;20074;-77
2022/10/24 14:10:13;;;;;;;2.83;1.92;;;;;;;;;;4975505;28;20031;-77
2022/10/24 14:12:43;;;;;;;2.03;1.83;;;;;;;;;;4970189;28;20114;-77
2022/10/24 14:15:21;;;;;;;2.78;2.20;;;;;;;;;;4979334;28;20053;-76
2022/10/24 14:17:59;;;;;;;3.65;1.90;;;;;;;;;;4977986;28;20019;-77
2022/10/24 14:20:37;;;;;;;3.20;2.70;;;;;;;;;;4989910;28;20031;-76
2022/10/24 14:23:15;;;;;;;2.95;2.40;;;;;;;;;;4991445;28;20031;-77
2022/10/24 14:25:42;;;;;;;2.92;2.40;;;;;;;;;;4972203;28;20039;-77
2022/10/24 14:28:19;;;;;;;2.38;2.17;;;;;;;;;;4988716;28;20035;-77
2022/10/24 14:31:00;;;;;;;1.90;1.60;;;;;;;;;;4988994;28;20039;-78
2022/10/24 14:33:28;;;;;;;2.00;1.80;;;;;;;;;;4977937;28;20034;-77
2022/10/24 14:35:56;;;;;;;1.70;1.60;;;;;;;;;;4974585;28;20030;-78
2022/10/24 14:38:23;;;;;;;1.48;1.38;;;;;;;;;;4992576;28;20371;-78
2022/10/24 14:40:50;;;;;;;1.60;1.50;;;;;;;;;;4974032;28;20042;-77
2022/10/24 14:43:24;;;;;;;2.70;2.13;;;;;;;;;;4972718;28;20034;-78
2022/10/24 14:46:09;;;;;;;2.13;1.83;;;;;;;;;;4978748;28;20022;-77
2022/10/24 14:48:36;;;;;;;1.98;1.55;;;;;;;;;;4989101;28;20101;-78
2022/10/24 14:51:10;;;;;;;2.10;1.75;;;;;;;;;;4978387;28;20030;-78
2022/10/24 14:53:39;;;;;;;2.40;1.90;;;;;;;;;;4977599;28;20097;-78
2022/10/24 14:56:16;;;;;;;2.63;2.40;;;;;;;;;;4970772;28;20022;-78